Terminal Aerodrome Forecast
Issued by NWS El Paso, TX

Home | Current Version | Previous Version | Text Only | Print | Product List | Glossary On
Versions: 1 2 3 4 5 6 7 8 9 10 11 12 13 14 15 16 17 18 19
000
FTUS44 KEPZ 181700
TAFELP
TAF
KELP 181722Z 1818/1918 35010KT P6SM VCSH SCT015 BKN040
      TEMPO 1818/1820 -SHRA BKN015
     FM182100 33010KT P6SM VCTS SCT025CB BKN050
      TEMPO 1822/1901 VRB20G35KT 1SM +TSRA BKN010CB
     FM190200 35008KT P6SM VCSH SCT025 BKN040
     FM190600 27007KT P6SM FEW030 SCT060 OVC100=

USA.gov is the U.S. government's official web portal to all federal, state and local government web resources and services.